createdAt,value
2019-03-05T00:01:19.720Z,7.78
2019-03-05T00:03:49.545Z,7.82
2019-03-05T00:06:19.222Z,7.84
2019-03-05T00:08:48.891Z,7.86
2019-03-05T00:11:18.639Z,7.87
2019-03-05T00:13:48.293Z,7.91
2019-03-05T00:16:18.207Z,7.94
2019-03-05T00:18:47.952Z,7.97
2019-03-05T00:21:17.780Z,8.00
2019-03-05T00:23:52.201Z,8.00
2019-03-05T00:26:28.204Z,7.96
2019-03-05T00:29:06.317Z,7.97
2019-03-05T00:31:37.680Z,7.97
2019-03-05T00:34:38.690Z,8.00
2019-03-05T00:37:20.502Z,7.94
2019-03-05T00:40:33.427Z,7.92
2019-03-05T00:43:29.693Z,7.89
2019-03-05T00:46:24.045Z,7.85
2019-03-05T00:49:15.651Z,7.84
2019-03-05T00:52:07.167Z,7.82
2019-03-05T00:55:14.830Z,7.83
2019-03-05T00:57:52.771Z,7.86
2019-03-05T01:01:24.776Z,7.89
2019-03-05T01:04:41.979Z,7.92
2019-03-05T01:07:11.651Z,7.92
2019-03-05T01:09:41.386Z,7.94
2019-03-05T01:12:13.171Z,7.93
2019-03-05T01:14:43.177Z,7.92
2019-03-05T01:17:12.918Z,7.88
2019-03-05T01:19:42.652Z,7.86
2019-03-05T01:22:12.531Z,7.84
2019-03-05T01:24:42.525Z,7.81
2019-03-05T01:27:12.272Z,7.77
2019-03-05T01:29:41.927Z,7.74
2019-03-05T01:32:21.008Z,7.71
2019-03-05T01:35:02.799Z,7.68
2019-03-05T01:37:32.548Z,7.67
2019-03-05T01:40:24.343Z,7.68
2019-03-05T01:42:54.018Z,7.67
2019-03-05T01:45:23.667Z,7.69
2019-03-05T01:47:53.399Z,7.73
2019-03-05T01:50:23.082Z,7.72
2019-03-05T01:52:52.861Z,7.72
2019-03-05T01:55:22.516Z,7.73
2019-03-05T01:57:53.146Z,7.75
2019-03-05T02:00:22.882Z,7.75
2019-03-05T02:02:52.570Z,7.73
2019-03-05T02:05:22.291Z,7.72
2019-03-05T02:07:52.586Z,7.71
2019-03-05T02:10:23.562Z,7.73
2019-03-05T02:12:53.221Z,7.71
2019-03-05T02:15:22.974Z,7.72
2019-03-05T02:17:52.640Z,7.74
2019-03-05T02:20:24.235Z,7.77
2019-03-05T02:23:00.486Z,7.81
2019-03-05T02:26:04.591Z,7.79
2019-03-05T02:29:05.419Z,7.79
2019-03-05T02:32:26.693Z,7.75
2019-03-05T02:35:33.538Z,7.72
2019-03-05T02:38:27.113Z,7.69
2019-03-05T02:41:22.295Z,7.62
2019-03-05T02:44:32.546Z,7.59
2019-03-05T02:47:19.114Z,7.57
2019-03-05T02:50:10.875Z,7.56
2019-03-05T02:53:02.555Z,7.53
2019-03-05T02:55:57.364Z,7.55
2019-03-05T02:58:25.670Z,7.58
2019-03-05T03:01:08.152Z,7.55
2019-03-05T03:03:41.522Z,7.57
2019-03-05T03:06:32.009Z,7.57
2019-03-05T03:09:41.993Z,7.53
2019-03-05T03:12:11.669Z,7.52
2019-03-05T03:14:41.323Z,7.53
2019-03-05T03:17:10.973Z,7.51
2019-03-05T03:19:40.705Z,7.50
2019-03-05T03:22:11.379Z,7.49
2019-03-05T03:24:41.039Z,7.45
2019-03-05T03:27:10.751Z,7.42
2019-03-05T03:29:40.410Z,7.40
2019-03-05T03:32:10.078Z,7.35
2019-03-05T03:34:39.986Z,7.32
2019-03-05T03:37:09.646Z,7.31
2019-03-05T03:39:40.291Z,7.27
2019-03-05T03:42:09.981Z,7.25
2019-03-05T03:44:39.738Z,7.23
2019-03-05T03:47:09.412Z,7.19
2019-03-05T03:49:39.081Z,7.18
2019-03-05T03:52:08.743Z,7.16
2019-03-05T03:54:38.401Z,7.12
2019-03-05T03:57:08.065Z,7.08
2019-03-05T03:59:37.753Z,7.03
2019-03-05T04:02:07.413Z,7.01
2019-03-05T04:04:37.137Z,6.98
2019-03-05T04:07:06.954Z,6.94
2019-03-05T04:09:36.678Z,6.84
2019-03-05T04:12:06.416Z,6.81
2019-03-05T04:14:36.092Z,6.81
2019-03-05T04:17:05.773Z,6.79
2019-03-05T04:19:36.010Z,6.79
2019-03-05T04:22:05.963Z,6.77
2019-03-05T04:24:35.777Z,6.75
2019-03-05T04:27:05.456Z,6.76
2019-03-05T04:29:35.536Z,6.75
2019-03-05T04:32:05.196Z,6.75
2019-03-05T04:34:34.877Z,6.72
2019-03-05T04:37:05.079Z,6.69
2019-03-05T04:39:34.754Z,6.70
2019-03-05T04:42:05.230Z,6.70
2019-03-05T04:44:49.087Z,6.66
2019-03-05T04:47:18.758Z,6.67
2019-03-05T04:49:59.319Z,6.63
2019-03-05T04:52:32.233Z,6.63
2019-03-05T04:55:01.886Z,6.65
2019-03-05T04:57:31.576Z,6.64
2019-03-05T05:00:01.331Z,6.63
2019-03-05T05:02:31.223Z,6.64
2019-03-05T05:05:00.897Z,6.67
2019-03-05T05:07:30.629Z,6.65
2019-03-05T05:10:00.341Z,6.65
2019-03-05T05:12:29.938Z,6.62
2019-03-05T05:14:59.597Z,6.61
2019-03-05T05:17:29.541Z,6.59
2019-03-05T05:19:59.202Z,6.58
2019-03-05T05:22:28.884Z,6.57
2019-03-05T05:24:58.800Z,6.55
2019-03-05T05:27:28.473Z,6.57
2019-03-05T05:29:58.122Z,6.58
2019-03-05T05:32:28.024Z,6.53
2019-03-05T05:34:57.930Z,6.53
2019-03-05T05:37:27.608Z,6.49
2019-03-05T05:40:25.181Z,6.44
2019-03-05T05:42:54.887Z,6.37
2019-03-05T05:45:26.351Z,6.28
2019-03-05T05:47:56.003Z,6.23
2019-03-05T05:50:25.666Z,6.20
2019-03-05T05:52:55.349Z,6.13
2019-03-05T05:55:25.098Z,6.11
2019-03-05T05:57:54.755Z,6.11
2019-03-05T06:00:25.492Z,6.10
2019-03-05T06:02:55.325Z,6.11
2019-03-05T06:05:25.239Z,6.13
2019-03-05T06:07:54.894Z,6.12
2019-03-05T06:10:24.541Z,6.15
2019-03-05T06:12:54.208Z,6.17
2019-03-05T06:15:23.947Z,6.23
2019-03-05T06:17:55.134Z,6.26
2019-03-05T06:20:24.864Z,6.33
2019-03-05T06:22:54.601Z,6.38
2019-03-05T06:25:25.581Z,6.42
2019-03-05T06:27:55.252Z,6.45
2019-03-05T06:30:25.361Z,6.48
2019-03-05T06:32:55.029Z,6.47
2019-03-05T06:35:24.778Z,6.48
2019-03-05T06:37:54.529Z,6.48
2019-03-05T06:40:24.315Z,6.50
2019-03-05T06:42:54.150Z,6.54
2019-03-05T06:45:23.889Z,6.57
2019-03-05T06:47:53.533Z,6.46
2019-03-05T06:50:23.273Z,6.22
2019-03-05T06:52:52.943Z,5.83
2019-03-05T06:55:22.627Z,5.63
2019-03-05T06:57:52.281Z,5.60
2019-03-05T07:00:27.684Z,5.54
2019-03-05T07:02:57.400Z,5.48
2019-03-05T07:06:02.881Z,5.46
2019-03-05T07:08:32.539Z,5.53
2019-03-05T07:11:19.180Z,5.67
2019-03-05T07:13:49.026Z,5.78
2019-03-05T07:16:32.462Z,5.90
2019-03-05T07:19:28.395Z,6.01
2019-03-05T07:22:19.973Z,6.13
2019-03-05T07:24:50.455Z,6.23
2019-03-05T07:27:34.274Z,6.30
2019-03-05T07:30:17.428Z,6.32
2019-03-05T07:32:47.682Z,6.39
2019-03-05T07:35:20.377Z,6.44
2019-03-05T07:37:50.219Z,6.48
2019-03-05T07:40:19.990Z,6.53
2019-03-05T07:42:49.648Z,6.62
2019-03-05T07:45:33.261Z,6.66
2019-03-05T07:48:03.138Z,6.70
2019-03-05T07:50:32.881Z,6.74
2019-03-05T07:53:02.545Z,6.78
2019-03-05T07:55:32.208Z,6.78
2019-03-05T07:58:01.877Z,6.83
2019-03-05T08:00:31.693Z,6.81
2019-03-05T08:03:01.361Z,6.82
2019-03-05T08:05:31.047Z,6.81
2019-03-05T08:08:37.469Z,6.82
2019-03-05T08:11:07.132Z,6.88
2019-03-05T08:14:01.376Z,6.93
2019-03-05T08:16:31.674Z,6.97
2019-03-05T08:19:01.403Z,7.02
2019-03-05T08:21:31.820Z,7.03
2019-03-05T08:24:01.520Z,7.03
2019-03-05T08:26:31.454Z,7.05
2019-03-05T08:29:03.121Z,7.04
2019-03-05T08:31:33.833Z,7.03
2019-03-05T08:34:03.765Z,7.04
2019-03-05T08:36:33.430Z,7.10
2019-03-05T08:39:05.208Z,7.12
2019-03-05T08:41:35.599Z,7.12
2019-03-05T08:44:05.430Z,7.18
2019-03-05T08:46:35.085Z,7.23
2019-03-05T08:49:05.080Z,7.25
2019-03-05T08:51:34.763Z,7.37
2019-03-05T08:54:07.609Z,7.38
2019-03-05T08:56:36.496Z,7.49
2019-03-05T08:59:06.241Z,7.55
2019-03-05T09:01:35.990Z,7.64
2019-03-05T09:04:05.668Z,7.71
2019-03-05T09:06:35.400Z,7.65
2019-03-05T09:09:06.627Z,7.65
2019-03-05T09:11:38.186Z,7.65
2019-03-05T09:14:08.214Z,7.57
2019-03-05T09:16:37.901Z,7.57
2019-03-05T09:19:07.622Z,7.54
2019-03-05T09:21:38.514Z,7.63
2019-03-05T09:24:08.401Z,7.71
2019-03-05T09:26:38.294Z,7.77
2019-03-05T09:29:08.100Z,7.83
2019-03-05T09:31:37.896Z,7.87
2019-03-05T09:34:07.624Z,7.95
2019-03-05T09:36:37.278Z,7.95
2019-03-05T09:39:09.792Z,8.00
2019-03-05T09:41:40.166Z,8.06
2019-03-05T09:44:09.997Z,8.05
2019-03-05T09:46:53.158Z,8.06
2019-03-05T09:49:22.943Z,8.14
2019-03-05T09:51:53.593Z,8.18
2019-03-05T09:54:23.252Z,8.17
2019-03-05T09:56:52.915Z,8.17
2019-03-05T09:59:22.576Z,8.18
2019-03-05T10:01:53.845Z,8.23
2019-03-05T10:04:23.767Z,8.16
2019-03-05T10:06:53.424Z,8.22
2019-03-05T10:09:25.786Z,8.28
2019-03-05T10:11:56.824Z,8.29
2019-03-05T10:14:26.248Z,8.35
2019-03-05T10:16:56.165Z,8.37
2019-03-05T10:19:25.827Z,8.37
2019-03-05T10:21:55.556Z,8.37
2019-03-05T10:24:25.241Z,8.32
2019-03-05T10:26:55.247Z,8.34
2019-03-05T10:29:25.185Z,8.38
2019-03-05T10:31:54.923Z,8.41
2019-03-05T10:34:25.939Z,8.42
2019-03-05T10:36:55.667Z,8.43
2019-03-05T10:39:30.938Z,8.46
2019-03-05T10:41:59.366Z,8.51
2019-03-05T10:44:29.197Z,8.61
2019-03-05T10:46:58.849Z,8.68
2019-03-05T10:49:28.625Z,8.75
2019-03-05T10:51:58.976Z,8.82
2019-03-05T10:54:29.762Z,8.84
2019-03-05T10:56:59.805Z,8.86
2019-03-05T10:59:29.701Z,8.85
2019-03-05T11:01:59.508Z,8.89
2019-03-05T11:04:29.204Z,8.96
2019-03-05T11:06:58.939Z,8.98
2019-03-05T11:09:28.692Z,9.07
2019-03-05T11:11:58.530Z,9.19
2019-03-05T11:14:28.176Z,9.28
2019-03-05T11:16:59.110Z,9.38
2019-03-05T11:19:28.758Z,9.58
2019-03-05T11:21:59.552Z,9.76
2019-03-05T11:24:29.510Z,9.89
2019-03-05T11:26:59.352Z,9.94
2019-03-05T11:29:29.002Z,9.91
2019-03-05T11:31:58.658Z,9.87
2019-03-05T11:34:28.667Z,9.99
2019-03-05T11:36:58.327Z,10.07
2019-03-05T11:39:28.220Z,10.09
2019-03-05T11:41:57.892Z,10.16
2019-03-05T11:44:27.630Z,10.23
2019-03-05T11:46:57.369Z,10.34
2019-03-05T11:49:27.181Z,10.39
2019-03-05T11:51:56.885Z,10.27
2019-03-05T11:54:27.683Z,10.26
2019-03-05T11:56:57.334Z,10.32
2019-03-05T11:59:27.006Z,10.31
2019-03-05T12:01:57.399Z,10.44
2019-03-05T12:04:27.319Z,10.37
2019-03-05T12:06:56.994Z,10.43
2019-03-05T12:09:26.654Z,10.54
2019-03-05T12:11:56.417Z,10.75
2019-03-05T12:14:26.075Z,10.86
2019-03-05T12:16:55.739Z,10.72
2019-03-05T12:19:25.464Z,10.59
2019-03-05T12:21:55.161Z,10.52
2019-03-05T12:24:25.719Z,10.52
2019-03-05T12:26:55.634Z,10.49
2019-03-05T12:29:25.368Z,10.41
2019-03-05T12:31:56.015Z,10.41
2019-03-05T12:34:25.690Z,10.51
2019-03-05T12:36:55.606Z,10.82
2019-03-05T12:39:25.342Z,10.99
2019-03-05T12:41:55.026Z,10.97
2019-03-05T12:44:24.697Z,10.92
2019-03-05T12:46:55.488Z,10.75
2019-03-05T12:49:25.151Z,10.69
2019-03-05T12:51:54.824Z,10.71
2019-03-05T12:54:24.595Z,10.75
2019-03-05T12:56:55.031Z,10.86
2019-03-05T12:59:26.478Z,10.93
2019-03-05T13:01:56.320Z,11.01
2019-03-05T13:04:26.004Z,11.02
2019-03-05T13:06:55.989Z,11.06
2019-03-05T13:09:25.643Z,11.17
2019-03-05T13:11:55.323Z,11.33
2019-03-05T13:14:25.013Z,11.28
2019-03-05T13:16:54.669Z,11.21
2019-03-05T13:19:24.340Z,11.10
2019-03-05T13:21:54.341Z,11.21
2019-03-05T13:24:24.015Z,11.33
2019-03-05T13:26:53.770Z,11.28
2019-03-05T13:29:23.439Z,11.22
2019-03-05T13:31:53.190Z,11.20
2019-03-05T13:34:22.874Z,11.26
2019-03-05T13:36:52.619Z,11.24
2019-03-05T13:39:23.815Z,11.25
2019-03-05T13:41:54.887Z,11.24
2019-03-05T13:44:32.095Z,11.12
2019-03-05T13:47:04.694Z,11.23
2019-03-05T13:50:14.894Z,11.19
2019-03-05T13:53:02.161Z,11.14
2019-03-05T13:56:07.335Z,11.13
2019-03-05T13:59:21.233Z,11.26
2019-03-05T14:01:50.975Z,11.32
2019-03-05T14:04:26.830Z,11.42
2019-03-05T14:07:55.201Z,11.51
2019-03-05T14:10:26.185Z,11.51
2019-03-05T14:12:56.062Z,11.52
2019-03-05T14:15:25.904Z,11.58
2019-03-05T14:17:55.670Z,11.53
2019-03-05T14:20:31.892Z,11.39
2019-03-05T14:22:57.193Z,11.32
2019-03-05T14:25:27.208Z,11.23
2019-03-05T14:27:56.944Z,11.18
2019-03-05T14:30:26.756Z,11.15
2019-03-05T14:32:56.973Z,11.12
2019-03-05T14:35:29.042Z,11.17
2019-03-05T14:37:59.185Z,11.17
2019-03-05T14:40:30.503Z,11.19
2019-03-05T14:43:00.930Z,11.14
2019-03-05T14:45:32.488Z,11.08
2019-03-05T14:48:04.371Z,11.04
2019-03-05T14:50:34.565Z,11.08
2019-03-05T14:53:05.073Z,11.14
2019-03-05T14:55:34.911Z,11.11
2019-03-05T14:58:05.015Z,11.17
2019-03-05T15:00:34.738Z,11.34
2019-03-05T15:03:05.260Z,11.48
2019-03-05T15:05:35.010Z,11.53
2019-03-05T15:08:05.055Z,11.53
2019-03-05T15:10:34.950Z,11.53
2019-03-05T15:13:15.424Z,11.54
2019-03-05T15:15:36.807Z,11.53
2019-03-05T15:18:06.823Z,11.54
2019-03-05T15:20:36.458Z,11.59
2019-03-05T15:23:06.206Z,11.61
2019-03-05T15:25:35.885Z,11.59
2019-03-05T15:28:05.655Z,11.59
2019-03-05T15:30:35.538Z,11.67
2019-03-05T15:33:05.342Z,11.73
2019-03-05T15:35:35.159Z,11.70
2019-03-05T15:40:40.332Z,11.57
2019-03-05T15:43:09.997Z,11.43
2019-03-05T15:45:39.971Z,11.32
2019-03-05T15:48:09.601Z,11.28
2019-03-05T15:50:39.288Z,11.27
2019-03-05T15:53:09.276Z,11.26
2019-03-05T15:55:39.020Z,11.30
2019-03-05T15:58:08.960Z,11.31
2019-03-05T16:00:38.857Z,11.23
2019-03-05T16:03:08.929Z,11.15
2019-03-05T16:05:38.758Z,11.10
2019-03-05T16:08:08.507Z,11.06
2019-03-05T16:10:38.194Z,11.03
2019-03-05T16:13:07.869Z,11.01
2019-03-05T16:15:37.540Z,10.96
2019-03-05T16:18:07.219Z,10.93
2019-03-05T16:20:36.974Z,10.89
2019-03-05T16:23:06.926Z,10.88
2019-03-05T16:25:36.607Z,10.81
2019-03-05T16:28:07.447Z,10.80
2019-03-05T16:30:53.826Z,10.77
2019-03-05T16:33:39.692Z,10.77
2019-03-05T16:36:32.381Z,10.71
2019-03-05T16:39:18.756Z,10.69
2019-03-05T16:41:58.301Z,10.65
2019-03-05T16:44:46.552Z,10.63
2019-03-05T16:47:21.180Z,10.55
2019-03-05T16:50:08.338Z,10.52
2019-03-05T16:52:57.320Z,10.49
2019-03-05T16:55:46.018Z,10.45
2019-03-05T16:58:29.398Z,10.39
2019-03-05T17:01:20.984Z,10.34
2019-03-05T17:04:07.385Z,10.30
2019-03-05T17:06:57.733Z,10.22
2019-03-05T17:09:40.386Z,10.18
2019-03-05T17:12:10.221Z,10.13
2019-03-05T17:14:40.057Z,10.07
2019-03-05T17:17:09.816Z,10.02
2019-03-05T17:19:39.645Z,10.00
2019-03-05T17:22:09.399Z,9.96
2019-03-05T17:24:39.127Z,9.92
2019-03-05T17:27:08.914Z,9.87
2019-03-05T17:29:39.697Z,9.84
2019-03-05T17:32:09.948Z,9.83
2019-03-05T17:34:39.672Z,9.80
2019-03-05T17:37:09.416Z,9.75
2019-03-05T17:39:39.399Z,9.71
2019-03-05T17:42:10.332Z,9.68
2019-03-05T17:44:39.987Z,9.63
2019-03-05T17:47:09.747Z,9.62
2019-03-05T17:49:39.681Z,9.59
2019-03-05T17:52:09.527Z,9.55
2019-03-05T17:54:39.455Z,9.52
2019-03-05T17:57:09.292Z,9.49
2019-03-05T17:59:40.228Z,9.43
2019-03-05T18:02:11.084Z,9.39
2019-03-05T18:04:40.989Z,9.36
2019-03-05T18:07:10.745Z,9.35
2019-03-05T18:09:40.416Z,9.32
2019-03-05T18:12:11.342Z,9.30
2019-03-05T18:14:43.278Z,9.25
2019-03-05T18:17:13.183Z,9.21
2019-03-05T18:19:42.988Z,9.17
2019-03-05T18:22:13.664Z,9.16
2019-03-05T18:24:43.419Z,9.12
2019-03-05T18:27:13.155Z,9.09
2019-03-05T18:29:43.199Z,9.06
2019-03-05T18:32:12.870Z,9.01
2019-03-05T18:34:42.625Z,8.97
2019-03-05T18:37:12.627Z,8.94
2019-03-05T18:39:43.849Z,8.87
2019-03-05T18:42:17.768Z,8.82
2019-03-05T18:44:47.514Z,8.81
2019-03-05T18:47:17.369Z,8.76
2019-03-05T18:49:47.181Z,8.75
2019-03-05T18:52:16.941Z,8.70
2019-03-05T18:54:46.771Z,8.66
2019-03-05T18:57:17.791Z,8.62
2019-03-05T18:59:47.505Z,8.56
2019-03-05T19:02:17.440Z,8.49
2019-03-05T19:04:47.124Z,8.46
2019-03-05T19:07:16.862Z,8.41
2019-03-05T19:09:46.568Z,8.31
2019-03-05T19:12:16.313Z,8.27
2019-03-05T19:14:49.692Z,8.23
2019-03-05T19:17:20.993Z,8.18
2019-03-05T19:19:50.854Z,8.08
2019-03-05T19:22:20.555Z,8.04
2019-03-05T19:24:50.395Z,7.94
2019-03-05T19:27:26.117Z,7.89
2019-03-05T19:29:51.886Z,7.84
2019-03-05T19:32:21.938Z,7.81
2019-03-05T19:34:51.702Z,7.77
2019-03-05T19:37:21.510Z,7.75
2019-03-05T19:39:51.210Z,7.70
2019-03-05T19:42:20.947Z,7.64
2019-03-05T19:44:50.613Z,7.57
2019-03-05T19:47:20.579Z,7.49
2019-03-05T19:49:50.278Z,7.44
2019-03-05T19:52:19.978Z,7.42
2019-03-05T19:54:49.659Z,7.39
2019-03-05T19:57:19.410Z,7.34
2019-03-05T19:59:49.133Z,7.30
2019-03-05T20:02:18.890Z,7.29
2019-03-05T20:04:48.649Z,7.25
2019-03-05T20:07:18.407Z,7.21
2019-03-05T20:09:48.085Z,7.17
2019-03-05T20:12:17.842Z,7.12
2019-03-05T20:14:47.586Z,7.08
2019-03-05T20:17:17.340Z,7.05
2019-03-05T20:19:47.034Z,7.02
2019-03-05T20:22:17.129Z,7.01
2019-03-05T20:24:46.819Z,7.00
2019-03-05T20:27:16.513Z,7.02
2019-03-05T20:29:47.340Z,6.96
2019-03-05T20:32:17.105Z,6.96
2019-03-05T20:34:46.852Z,6.95
2019-03-05T20:37:16.536Z,6.89
2019-03-05T20:39:46.499Z,6.88
2019-03-05T20:42:17.182Z,6.92
2019-03-05T20:44:47.101Z,6.92
2019-03-05T20:47:16.790Z,6.91
2019-03-05T20:49:46.622Z,6.86
2019-03-05T20:52:16.461Z,6.80
2019-03-05T20:54:46.310Z,6.79
2019-03-05T20:57:16.316Z,6.79
2019-03-05T20:59:46.057Z,6.77
2019-03-05T21:02:15.785Z,6.73
2019-03-05T21:04:45.877Z,6.73
2019-03-05T21:07:15.631Z,6.72
2019-03-05T21:09:45.508Z,6.71
2019-03-05T21:12:15.189Z,6.70
2019-03-05T21:14:44.901Z,6.70
2019-03-05T21:17:14.582Z,6.67
2019-03-05T21:19:44.344Z,6.66
2019-03-05T21:22:14.039Z,6.66
2019-03-05T21:24:43.721Z,6.64
2019-03-05T21:27:13.465Z,6.62
2019-03-05T21:29:43.149Z,6.62
2019-03-05T21:32:12.909Z,6.63
2019-03-05T21:34:42.663Z,6.63
2019-03-05T21:37:12.424Z,6.62
2019-03-05T21:39:42.174Z,6.64
2019-03-05T21:42:11.884Z,6.62
2019-03-05T21:44:42.710Z,6.64
2019-03-05T21:47:12.407Z,6.64
2019-03-05T21:49:43.149Z,6.61
2019-03-05T21:52:12.988Z,6.60
2019-03-05T21:54:44.004Z,6.61
2019-03-05T21:57:13.731Z,6.59
2019-03-05T21:59:43.409Z,6.60
2019-03-05T22:02:13.182Z,6.60
2019-03-05T22:04:42.922Z,6.59
2019-03-05T22:07:12.782Z,6.58
2019-03-05T22:09:42.519Z,6.57
2019-03-05T22:12:12.217Z,6.55
2019-03-05T22:14:41.887Z,6.54
2019-03-05T22:17:11.563Z,6.53
2019-03-05T22:19:41.230Z,6.52
2019-03-05T22:22:10.901Z,6.54
2019-03-05T22:24:40.565Z,6.57
2019-03-05T22:27:10.299Z,6.55
2019-03-05T22:29:39.975Z,6.53
2019-03-05T22:32:09.642Z,6.52
2019-03-05T22:34:39.300Z,6.49
2019-03-05T22:37:09.031Z,6.47
2019-03-05T22:39:38.789Z,6.44
2019-03-05T22:42:08.654Z,6.50
2019-03-05T22:44:38.392Z,6.55
2019-03-05T22:47:08.243Z,6.54
2019-03-05T22:49:37.895Z,6.57
2019-03-05T22:52:07.797Z,6.56
2019-03-05T22:54:37.893Z,6.58
2019-03-05T22:57:07.553Z,6.60
2019-03-05T22:59:37.218Z,6.59
2019-03-05T23:02:07.870Z,6.54
2019-03-05T23:04:40.321Z,6.52
2019-03-05T23:07:11.367Z,6.53
2019-03-05T23:09:41.183Z,6.54
2019-03-05T23:12:11.465Z,6.56
2019-03-05T23:14:41.944Z,6.58
2019-03-05T23:17:11.994Z,6.61
2019-03-05T23:19:41.810Z,6.64
2019-03-05T23:22:11.831Z,6.61
2019-03-05T23:24:41.582Z,6.62
2019-03-05T23:27:11.438Z,6.59
2019-03-05T23:29:45.911Z,6.58
2019-03-05T23:32:17.778Z,6.54
2019-03-05T23:34:48.578Z,6.55
2019-03-05T23:37:18.315Z,6.55
2019-03-05T23:39:48.433Z,6.52
2019-03-05T23:42:18.096Z,6.52
2019-03-05T23:44:47.776Z,6.54
2019-03-05T23:47:17.511Z,6.54
2019-03-05T23:49:47.482Z,6.53
2019-03-05T23:52:17.151Z,6.58
2019-03-05T23:54:46.831Z,6.60
2019-03-05T23:57:16.499Z,6.62
2019-03-05T23:59:46.439Z,6.61
